sensor_id;sensor_type;location;lat;lon;timestamp;pressure;altitude;pressure_sealevel;temperature;humidity
4392;BME280;2210;51.938;8.488;2023-02-28T00:00:59;102028.63;;;-0.57;100.00
4392;BME280;2210;51.938;8.488;2023-02-28T00:04:59;102018.19;;;-0.62;100.00
4392;BME280;2210;51.938;8.488;2023-02-28T00:09:01;102026.06;;;-0.59;100.00
4392;BME280;2210;51.938;8.488;2023-02-28T00:13:06;102021.25;;;-0.66;100.00
4392;BME280;2210;51.938;8.488;2023-02-28T00:17:06;102013.38;;;-0.70;100.00
4392;BME280;2210;51.938;8.488;2023-02-28T00:21:07;102008.94;;;-0.71;100.00
4392;BME280;2210;51.938;8.488;2023-02-28T00:25:10;102021.53;;;-0.70;100.00
4392;BME280;2210;51.938;8.488;2023-02-28T00:29:10;102024.97;;;-0.68;100.00
4392;BME280;2210;51.938;8.488;2023-02-28T00:33:11;102029.91;;;-0.73;100.00
4392;BME280;2210;51.938;8.488;2023-02-28T00:37:12;102022.75;;;-0.74;100.00
4392;BME280;2210;51.938;8.488;2023-02-28T00:41:12;102025.47;;;-0.74;100.00
4392;BME280;2210;51.938;8.488;2023-02-28T00:45:12;102031.75;;;-0.85;100.00
4392;BME280;2210;51.938;8.488;2023-02-28T00:49:18;102027.22;;;-0.84;100.00
4392;BME280;2210;51.938;8.488;2023-02-28T00:53:19;102023.78;;;-0.86;100.00
4392;BME280;2210;51.938;8.488;2023-02-28T00:57:25;102032.16;;;-0.89;100.00
4392;BME280;2210;51.938;8.488;2023-02-28T01:01:26;102029.94;;;-0.84;100.00
4392;BME280;2210;51.938;8.488;2023-02-28T01:05:32;102032.38;;;-0.81;100.00
4392;BME280;2210;51.938;8.488;2023-02-28T01:09:36;102031.63;;;-0.83;100.00
4392;BME280;2210;51.938;8.488;2023-02-28T01:13:40;102029.69;;;-0.81;100.00
4392;BME280;2210;51.938;8.488;2023-02-28T01:17:40;102028.22;;;-0.85;100.00
4392;BME280;2210;51.938;8.488;2023-02-28T01:21:40;102027.09;;;-0.94;100.00
4392;BME280;2210;51.938;8.488;2023-02-28T01:25:43;102025.00;;;-0.90;100.00
4392;BME280;2210;51.938;8.488;2023-02-28T01:29:44;102024.78;;;-0.98;100.00
4392;BME280;2210;51.938;8.488;2023-02-28T01:33:44;102029.56;;;-1.02;100.00
4392;BME280;2210;51.938;8.488;2023-02-28T01:37:44;102031.53;;;-1.15;100.00
4392;BME280;2210;51.938;8.488;2023-02-28T01:41:44;102021.59;;;-1.15;100.00
4392;BME280;2210;51.938;8.488;2023-02-28T01:45:45;102019.00;;;-1.16;100.00
4392;BME280;2210;51.938;8.488;2023-02-28T01:49:48;102022.44;;;-1.26;100.00
4392;BME280;2210;51.938;8.488;2023-02-28T01:53:56;102021.47;;;-1.25;100.00
4392;BME280;2210;51.938;8.488;2023-02-28T01:58:02;102022.06;;;-1.32;100.00
4392;BME280;2210;51.938;8.488;2023-02-28T02:02:04;102017.50;;;-1.32;100.00
4392;BME280;2210;51.938;8.488;2023-02-28T02:06:04;102023.91;;;-1.33;100.00
4392;BME280;2210;51.938;8.488;2023-02-28T02:14:44;102024.53;;;-1.41;100.00
4392;BME280;2210;51.938;8.488;2023-02-28T02:19:14;102027.72;;;-1.47;100.00
4392;BME280;2210;51.938;8.488;2023-02-28T02:23:33;102026.09;;;-1.49;100.00
4392;BME280;2210;51.938;8.488;2023-02-28T02:32:28;102023.53;;;-1.51;100.00
4392;BME280;2210;51.938;8.488;2023-02-28T02:36:39;102026.94;;;-1.60;100.00
4392;BME280;2210;51.938;8.488;2023-02-28T02:40:56;102019.97;;;-1.51;100.00
4392;BME280;2210;51.938;8.488;2023-02-28T02:45:03;102010.72;;;-1.60;100.00
4392;BME280;2210;51.938;8.488;2023-02-28T02:49:08;102013.22;;;-1.57;100.00
4392;BME280;2210;51.938;8.488;2023-02-28T02:53:11;102011.72;;;-1.61;100.00
4392;BME280;2210;51.938;8.488;2023-02-28T02:57:23;102015.50;;;-1.75;100.00
4392;BME280;2210;51.938;8.488;2023-02-28T03:01:25;102024.47;;;-1.75;100.00
4392;BME280;2210;51.938;8.488;2023-02-28T03:05:41;102020.78;;;-1.74;100.00
4392;BME280;2210;51.938;8.488;2023-02-28T03:09:56;102021.28;;;-1.80;100.00
4392;BME280;2210;51.938;8.488;2023-02-28T03:14:06;102028.41;;;-1.79;100.00
4392;BME280;2210;51.938;8.488;2023-02-28T03:18:16;102029.25;;;-1.78;100.00
4392;BME280;2210;51.938;8.488;2023-02-28T03:26:44;102021.13;;;-1.90;100.00
4392;BME280;2210;51.938;8.488;2023-02-28T03:35:07;102024.41;;;-1.97;100.00
4392;BME280;2210;51.938;8.488;2023-02-28T03:39:14;102018.75;;;-2.06;100.00
4392;BME280;2210;51.938;8.488;2023-02-28T03:43:26;102019.59;;;-2.05;100.00
4392;BME280;2210;51.938;8.488;2023-02-28T03:47:35;102016.63;;;-2.13;100.00
4392;BME280;2210;51.938;8.488;2023-02-28T03:51:40;102017.97;;;-2.08;100.00
4392;BME280;2210;51.938;8.488;2023-02-28T03:55:49;102017.50;;;-2.13;100.00
4392;BME280;2210;51.938;8.488;2023-02-28T03:59:56;102012.81;;;-2.11;100.00
4392;BME280;2210;51.938;8.488;2023-02-28T04:03:57;102021.09;;;-2.25;100.00
4392;BME280;2210;51.938;8.488;2023-02-28T04:08:07;102017.16;;;-2.32;100.00
4392;BME280;2210;51.938;8.488;2023-02-28T04:12:08;102019.41;;;-2.26;100.00
4392;BME280;2210;51.938;8.488;2023-02-28T04:16:09;102017.91;;;-2.30;100.00
4392;BME280;2210;51.938;8.488;2023-02-28T04:20:13;102020.75;;;-2.32;100.00
4392;BME280;2210;51.938;8.488;2023-02-28T04:24:16;102019.00;;;-2.33;100.00
4392;BME280;2210;51.938;8.488;2023-02-28T04:28:17;102016.91;;;-2.29;100.00
4392;BME280;2210;51.938;8.488;2023-02-28T04:32:23;102020.09;;;-2.35;100.00
4392;BME280;2210;51.938;8.488;2023-02-28T04:36:46;102010.13;;;-2.35;100.00
4392;BME280;2210;51.938;8.488;2023-02-28T04:40:49;102012.44;;;-2.42;100.00
4392;BME280;2210;51.938;8.488;2023-02-28T04:44:55;102008.50;;;-2.49;100.00
4392;BME280;2210;51.938;8.488;2023-02-28T04:49:02;102008.13;;;-2.44;100.00
4392;BME280;2210;51.938;8.488;2023-02-28T04:53:06;102008.25;;;-2.46;100.00
4392;BME280;2210;51.938;8.488;2023-02-28T04:57:09;102005.66;;;-2.47;100.00
4392;BME280;2210;51.938;8.488;2023-02-28T05:01:18;102009.25;;;-2.47;100.00
4392;BME280;2210;51.938;8.488;2023-02-28T05:05:19;102006.88;;;-2.51;100.00
4392;BME280;2210;51.938;8.488;2023-02-28T05:09:29;102017.81;;;-2.53;100.00
4392;BME280;2210;51.938;8.488;2023-02-28T05:13:29;102021.47;;;-2.54;100.00
4392;BME280;2210;51.938;8.488;2023-02-28T05:17:29;102026.63;;;-2.51;100.00
4392;BME280;2210;51.938;8.488;2023-02-28T05:21:49;102027.00;;;-2.56;100.00
4392;BME280;2210;51.938;8.488;2023-02-28T05:25:50;102028.03;;;-2.69;100.00
4392;BME280;2210;51.938;8.488;2023-02-28T05:30:06;102031.69;;;-2.71;100.00
4392;BME280;2210;51.938;8.488;2023-02-28T05:34:09;102038.53;;;-2.78;100.00
4392;BME280;2210;51.938;8.488;2023-02-28T05:38:15;102043.56;;;-2.73;100.00
4392;BME280;2210;51.938;8.488;2023-02-28T05:42:18;102039.06;;;-2.73;100.00
4392;BME280;2210;51.938;8.488;2023-02-28T05:46:34;102030.72;;;-2.69;100.00
4392;BME280;2210;51.938;8.488;2023-02-28T05:50:40;102038.66;;;-2.79;100.00
4392;BME280;2210;51.938;8.488;2023-02-28T05:54:42;102036.69;;;-2.77;100.00
4392;BME280;2210;51.938;8.488;2023-02-28T05:58:58;102038.00;;;-2.83;100.00
4392;BME280;2210;51.938;8.488;2023-02-28T06:03:04;102033.78;;;-2.87;100.00
4392;BME280;2210;51.938;8.488;2023-02-28T06:07:04;102042.84;;;-2.88;100.00
4392;BME280;2210;51.938;8.488;2023-02-28T06:11:11;102039.59;;;-2.80;100.00
4392;BME280;2210;51.938;8.488;2023-02-28T06:15:15;102044.59;;;-2.87;100.00
4392;BME280;2210;51.938;8.488;2023-02-28T06:19:18;102046.94;;;-2.82;100.00
4392;BME280;2210;51.938;8.488;2023-02-28T06:23:18;102042.75;;;-2.86;100.00
4392;BME280;2210;51.938;8.488;2023-02-28T06:27:34;102053.13;;;-2.93;100.00
4392;BME280;2210;51.938;8.488;2023-02-28T06:31:44;102047.00;;;-2.95;100.00
4392;BME280;2210;51.938;8.488;2023-02-28T06:35:47;102048.50;;;-2.91;100.00
4392;BME280;2210;51.938;8.488;2023-02-28T06:39:50;102052.91;;;-2.90;100.00
4392;BME280;2210;51.938;8.488;2023-02-28T06:43:50;102060.25;;;-2.92;100.00
4392;BME280;2210;51.938;8.488;2023-02-28T06:48:09;102057.72;;;-2.82;100.00
4392;BME280;2210;51.938;8.488;2023-02-28T06:52:10;102067.03;;;-2.86;100.00
4392;BME280;2210;51.938;8.488;2023-02-28T06:56:13;102066.06;;;-2.73;100.00
4392;BME280;2210;51.938;8.488;2023-02-28T07:00:14;102069.84;;;-2.51;100.00
4392;BME280;2210;51.938;8.488;2023-02-28T07:04:14;102070.44;;;-2.34;100.00
4392;BME280;2210;51.938;8.488;2023-02-28T07:08:15;102080.34;;;-2.22;100.00
4392;BME280;2210;51.938;8.488;2023-02-28T07:12:16;102074.66;;;-2.06;100.00
4392;BME280;2210;51.938;8.488;2023-02-28T07:16:16;102086.72;;;-1.99;100.00
4392;BME280;2210;51.938;8.488;2023-02-28T07:20:17;102087.09;;;-1.92;100.00
4392;BME280;2210;51.938;8.488;2023-02-28T07:24:17;102089.81;;;-1.92;100.00
4392;BME280;2210;51.938;8.488;2023-02-28T07:28:27;102092.75;;;-1.95;100.00
4392;BME280;2210;51.938;8.488;2023-02-28T07:32:30;102105.25;;;-1.94;100.00
4392;BME280;2210;51.938;8.488;2023-02-28T07:36:37;102098.91;;;-1.82;100.00
4392;BME280;2210;51.938;8.488;2023-02-28T07:40:40;102101.81;;;-1.61;100.00
4392;BME280;2210;51.938;8.488;2023-02-28T07:44:40;102102.09;;;-1.53;98.93
4392;BME280;2210;51.938;8.488;2023-02-28T07:48:47;102099.06;;;-1.37;98.76
4392;BME280;2210;51.938;8.488;2023-02-28T07:52:47;102097.97;;;-1.11;94.88
4392;BME280;2210;51.938;8.488;2023-02-28T07:56:50;102092.94;;;-0.82;91.00
4392;BME280;2210;51.938;8.488;2023-02-28T08:00:53;102092.41;;;-0.53;88.47
4392;BME280;2210;51.938;8.488;2023-02-28T08:05:00;102085.84;;;-0.28;86.64
4392;BME280;2210;51.938;8.488;2023-02-28T08:09:04;102090.06;;;-0.03;81.13
4392;BME280;2210;51.938;8.488;2023-02-28T08:13:26;102086.31;;;0.31;76.07
4392;BME280;2210;51.938;8.488;2023-02-28T08:17:27;102087.34;;;0.51;72.98
4392;BME280;2210;51.938;8.488;2023-02-28T08:21:33;102084.53;;;0.83;69.66
4392;BME280;2210;51.938;8.488;2023-02-28T08:25:33;102083.06;;;1.00;69.78
4392;BME280;2210;51.938;8.488;2023-02-28T08:29:37;102081.13;;;1.22;68.62
4392;BME280;2210;51.938;8.488;2023-02-28T08:33:44;102078.16;;;1.35;66.19
4392;BME280;2210;51.938;8.488;2023-02-28T08:37:48;102077.22;;;1.65;65.36
4392;BME280;2210;51.938;8.488;2023-02-28T08:41:52;102077.69;;;1.80;62.60
4392;BME280;2210;51.938;8.488;2023-02-28T08:45:58;102068.66;;;1.90;61.21
4392;BME280;2210;51.938;8.488;2023-02-28T08:49:58;102071.53;;;1.98;60.71
4392;BME280;2210;51.938;8.488;2023-02-28T08:54:02;102077.41;;;2.13;59.94
4392;BME280;2210;51.938;8.488;2023-02-28T08:58:02;102075.84;;;2.30;59.38
4392;BME280;2210;51.938;8.488;2023-02-28T09:02:02;102075.13;;;2.28;59.39
4392;BME280;2210;51.938;8.488;2023-02-28T09:06:03;102081.97;;;2.32;59.62
4392;BME280;2210;51.938;8.488;2023-02-28T09:10:04;102078.28;;;2.33;60.71
4392;BME280;2210;51.938;8.488;2023-02-28T09:14:05;102081.00;;;2.23;60.19
4392;BME280;2210;51.938;8.488;2023-02-28T09:18:05;102069.25;;;2.32;59.76
4392;BME280;2210;51.938;8.488;2023-02-28T09:22:05;102067.75;;;2.58;60.13
4392;BME280;2210;51.938;8.488;2023-02-28T09:26:06;102067.81;;;2.38;59.49
4392;BME280;2210;51.938;8.488;2023-02-28T09:30:07;102072.09;;;2.21;59.67
4392;BME280;2210;51.938;8.488;2023-02-28T09:34:10;102064.81;;;2.22;59.68
4392;BME280;2210;51.938;8.488;2023-02-28T09:38:11;102068.38;;;2.32;60.18
4392;BME280;2210;51.938;8.488;2023-02-28T09:42:21;102074.69;;;2.32;60.52
4392;BME280;2210;51.938;8.488;2023-02-28T09:46:44;102075.25;;;2.36;59.74
4392;BME280;2210;51.938;8.488;2023-02-28T09:50:50;102075.81;;;2.40;60.18
4392;BME280;2210;51.938;8.488;2023-02-28T09:54:54;102072.53;;;2.46;60.30
4392;BME280;2210;51.938;8.488;2023-02-28T09:59:02;102079.09;;;2.53;60.77
4392;BME280;2210;51.938;8.488;2023-02-28T10:08:12;102083.44;;;2.46;61.96
4392;BME280;2210;51.938;8.488;2023-02-28T10:12:15;102083.97;;;2.49;60.14
4392;BME280;2210;51.938;8.488;2023-02-28T10:16:34;102090.97;;;2.62;60.09
4392;BME280;2210;51.938;8.488;2023-02-28T10:20:42;102086.06;;;2.75;61.02
4392;BME280;2210;51.938;8.488;2023-02-28T10:24:54;102097.25;;;2.82;61.12
4392;BME280;2210;51.938;8.488;2023-02-28T10:29:08;102087.53;;;2.69;62.69
4392;BME280;2210;51.938;8.488;2023-02-28T10:33:18;102079.19;;;2.71;63.56
4392;BME280;2210;51.938;8.488;2023-02-28T10:37:19;102073.28;;;2.85;63.84
4392;BME280;2210;51.938;8.488;2023-02-28T10:41:29;102085.16;;;2.94;64.08
4392;BME280;2210;51.938;8.488;2023-02-28T10:45:32;102086.28;;;3.01;64.25
4392;BME280;2210;51.938;8.488;2023-02-28T10:49:33;102092.44;;;3.03;65.56
4392;BME280;2210;51.938;8.488;2023-02-28T10:53:45;102078.59;;;2.87;64.87
4392;BME280;2210;51.938;8.488;2023-02-28T10:57:51;102074.75;;;2.80;64.22
4392;BME280;2210;51.938;8.488;2023-02-28T11:01:55;102073.56;;;2.92;65.58
4392;BME280;2210;51.938;8.488;2023-02-28T11:05:56;102063.59;;;3.38;63.94
4392;BME280;2210;51.938;8.488;2023-02-28T11:10:06;102062.59;;;3.40;62.48
4392;BME280;2210;51.938;8.488;2023-02-28T11:14:24;102047.47;;;3.73;61.68
4392;BME280;2210;51.938;8.488;2023-02-28T11:18:59;102043.47;;;3.67;60.55
4392;BME280;2210;51.938;8.488;2023-02-28T11:23:02;102064.28;;;4.22;59.67
4392;BME280;2210;51.938;8.488;2023-02-28T11:27:25;102045.13;;;3.96;56.77
4392;BME280;2210;51.938;8.488;2023-02-28T11:31:28;102039.91;;;4.03;58.77
4392;BME280;2210;51.938;8.488;2023-02-28T11:35:30;102031.63;;;4.13;56.55
4392;BME280;2210;51.938;8.488;2023-02-28T11:39:32;102034.22;;;3.96;57.07
4392;BME280;2210;51.938;8.488;2023-02-28T11:48:05;102028.00;;;4.30;55.20
4392;BME280;2210;51.938;8.488;2023-02-28T11:56:55;102023.03;;;4.08;56.07
4392;BME280;2210;51.938;8.488;2023-02-28T12:01:08;102018.69;;;3.79;56.77
4392;BME280;2210;51.938;8.488;2023-02-28T12:05:40;102024.69;;;3.82;57.53
4392;BME280;2210;51.938;8.488;2023-02-28T12:27:46;102001.59;;;3.95;59.41
4392;BME280;2210;51.938;8.488;2023-02-28T12:32:11;101995.66;;;4.17;59.92
4392;BME280;2210;51.938;8.488;2023-02-28T12:36:16;101990.56;;;4.49;57.80
4392;BME280;2210;51.938;8.488;2023-02-28T12:40:21;101981.41;;;4.58;56.76
4392;BME280;2210;51.938;8.488;2023-02-28T12:49:19;101971.09;;;4.44;56.93
4392;BME280;2210;51.938;8.488;2023-02-28T12:58:01;101958.06;;;4.64;55.47
4392;BME280;2210;51.938;8.488;2023-02-28T13:07:18;101941.59;;;4.82;55.41
4392;BME280;2210;51.938;8.488;2023-02-28T13:11:31;101943.22;;;4.66;54.22
4392;BME280;2210;51.938;8.488;2023-02-28T13:15:35;101938.38;;;4.52;55.09
4392;BME280;2210;51.938;8.488;2023-02-28T13:27:58;101932.00;;;4.78;54.78
4392;BME280;2210;51.938;8.488;2023-02-28T13:32:29;101934.78;;;4.51;54.98
4392;BME280;2210;51.938;8.488;2023-02-28T13:36:36;101932.00;;;4.78;54.79
4392;BME280;2210;51.938;8.488;2023-02-28T13:40:39;101931.88;;;4.53;54.99
4392;BME280;2210;51.938;8.488;2023-02-28T13:53:49;101923.66;;;4.79;56.64
4392;BME280;2210;51.938;8.488;2023-02-28T13:58:08;101910.06;;;4.61;55.17
4392;BME280;2210;51.938;8.488;2023-02-28T14:07:07;101926.44;;;4.61;56.35
4392;BME280;2210;51.938;8.488;2023-02-28T14:11:25;101909.97;;;4.79;56.60
4392;BME280;2210;51.938;8.488;2023-02-28T14:20:12;101909.66;;;4.82;57.89
4392;BME280;2210;51.938;8.488;2023-02-28T14:24:49;101901.00;;;4.95;57.96
4392;BME280;2210;51.938;8.488;2023-02-28T14:33:48;101897.16;;;4.80;58.12
4392;BME280;2210;51.938;8.488;2023-02-28T14:37:42;101896.16;;;4.81;58.49
4392;BME280;2210;51.938;8.488;2023-02-28T14:41:44;101894.88;;;4.59;58.02
4392;BME280;2210;51.938;8.488;2023-02-28T14:45:49;101899.75;;;4.47;57.86
4392;BME280;2210;51.938;8.488;2023-02-28T14:49:54;101885.97;;;4.56;57.75
4392;BME280;2210;51.938;8.488;2023-02-28T14:54:01;101891.94;;;4.52;57.58
4392;BME280;2210;51.938;8.488;2023-02-28T14:58:06;101896.50;;;4.43;58.24
4392;BME280;2210;51.938;8.488;2023-02-28T15:02:38;101902.97;;;4.42;57.40
4392;BME280;2210;51.938;8.488;2023-02-28T15:06:39;101905.19;;;4.38;56.79
4392;BME280;2210;51.938;8.488;2023-02-28T15:10:50;101904.44;;;4.28;57.33
4392;BME280;2210;51.938;8.488;2023-02-28T15:14:55;101912.38;;;4.39;57.70
4392;BME280;2210;51.938;8.488;2023-02-28T15:19:11;101904.66;;;4.35;57.38
4392;BME280;2210;51.938;8.488;2023-02-28T15:23:15;101903.25;;;4.31;57.24
4392;BME280;2210;51.938;8.488;2023-02-28T15:27:21;101908.19;;;4.27;57.72
4392;BME280;2210;51.938;8.488;2023-02-28T15:31:27;101911.25;;;4.24;58.96
4392;BME280;2210;51.938;8.488;2023-02-28T15:35:30;101914.84;;;4.25;59.42
4392;BME280;2210;51.938;8.488;2023-02-28T15:39:31;101913.28;;;4.22;58.69
4392;BME280;2210;51.938;8.488;2023-02-28T15:43:44;101902.66;;;4.19;59.24
4392;BME280;2210;51.938;8.488;2023-02-28T15:47:47;101909.00;;;4.19;60.12
4392;BME280;2210;51.938;8.488;2023-02-28T15:51:53;101905.41;;;4.19;59.83
4392;BME280;2210;51.938;8.488;2023-02-28T15:56:03;101910.19;;;4.17;58.28
4392;BME280;2210;51.938;8.488;2023-02-28T16:00:11;101909.81;;;4.12;57.90
4392;BME280;2210;51.938;8.488;2023-02-28T16:04:19;101905.84;;;4.06;57.86
4392;BME280;2210;51.938;8.488;2023-02-28T16:08:19;101910.06;;;4.00;59.26
4392;BME280;2210;51.938;8.488;2023-02-28T16:12:20;101921.66;;;4.02;59.18
4392;BME280;2210;51.938;8.488;2023-02-28T16:16:24;101919.72;;;3.95;59.61
4392;BME280;2210;51.938;8.488;2023-02-28T16:20:44;101924.34;;;3.94;59.91
4392;BME280;2210;51.938;8.488;2023-02-28T16:24:45;101924.91;;;3.80;62.25
4392;BME280;2210;51.938;8.488;2023-02-28T16:28:46;101920.94;;;3.74;62.68
4392;BME280;2210;51.938;8.488;2023-02-28T16:32:46;101924.84;;;3.71;61.90
4392;BME280;2210;51.938;8.488;2023-02-28T16:36:52;101928.06;;;3.67;62.96
4392;BME280;2210;51.938;8.488;2023-02-28T16:40:55;101925.41;;;3.57;63.56
4392;BME280;2210;51.938;8.488;2023-02-28T16:44:55;101926.91;;;3.51;63.92
4392;BME280;2210;51.938;8.488;2023-02-28T16:49:02;101932.13;;;3.45;64.38
4392;BME280;2210;51.938;8.488;2023-02-28T16:53:05;101935.13;;;3.42;63.90
4392;BME280;2210;51.938;8.488;2023-02-28T16:57:06;101933.81;;;3.28;64.56
4392;BME280;2210;51.938;8.488;2023-02-28T17:01:06;101945.63;;;3.18;65.07
4392;BME280;2210;51.938;8.488;2023-02-28T17:05:08;101943.44;;;3.04;65.45
4392;BME280;2210;51.938;8.488;2023-02-28T17:09:18;101937.13;;;3.03;65.70
4392;BME280;2210;51.938;8.488;2023-02-28T17:13:27;101942.31;;;2.97;65.12
4392;BME280;2210;51.938;8.488;2023-02-28T17:17:28;101943.38;;;2.86;65.37
4392;BME280;2210;51.938;8.488;2023-02-28T17:21:29;101938.25;;;2.83;66.12
4392;BME280;2210;51.938;8.488;2023-02-28T17:25:33;101932.69;;;2.75;66.73
4392;BME280;2210;51.938;8.488;2023-02-28T17:29:36;101950.19;;;2.72;66.88
4392;BME280;2210;51.938;8.488;2023-02-28T17:33:43;101944.22;;;2.59;67.29
4392;BME280;2210;51.938;8.488;2023-02-28T17:37:43;101951.13;;;2.53;67.08
4392;BME280;2210;51.938;8.488;2023-02-28T17:41:56;101957.63;;;2.42;67.96
4392;BME280;2210;51.938;8.488;2023-02-28T17:46:09;101959.81;;;2.29;68.85
4392;BME280;2210;51.938;8.488;2023-02-28T17:50:18;101967.00;;;2.20;69.31
4392;BME280;2210;51.938;8.488;2023-02-28T17:54:21;101966.28;;;2.18;68.98
4392;BME280;2210;51.938;8.488;2023-02-28T17:58:25;101976.03;;;2.11;69.81
4392;BME280;2210;51.938;8.488;2023-02-28T18:02:37;101981.63;;;2.19;69.26
4392;BME280;2210;51.938;8.488;2023-02-28T18:06:41;101982.75;;;2.16;69.20
4392;BME280;2210;51.938;8.488;2023-02-28T18:10:50;101992.66;;;2.08;69.54
4392;BME280;2210;51.938;8.488;2023-02-28T18:14:56;101986.78;;;2.02;71.25
4392;BME280;2210;51.938;8.488;2023-02-28T18:19:06;101989.94;;;2.08;69.88
4392;BME280;2210;51.938;8.488;2023-02-28T18:23:20;101986.66;;;1.94;70.93
4392;BME280;2210;51.938;8.488;2023-02-28T18:27:34;101998.09;;;1.88;71.59
4392;BME280;2210;51.938;8.488;2023-02-28T18:31:34;101998.81;;;1.80;71.51
4392;BME280;2210;51.938;8.488;2023-02-28T18:35:34;101994.81;;;1.75;72.26
4392;BME280;2210;51.938;8.488;2023-02-28T18:39:41;101984.66;;;1.67;72.29
4392;BME280;2210;51.938;8.488;2023-02-28T18:43:51;101985.94;;;1.73;73.60
4392;BME280;2210;51.938;8.488;2023-02-28T18:47:53;101985.66;;;1.66;72.55
4392;BME280;2210;51.938;8.488;2023-02-28T18:51:56;101984.78;;;1.65;72.86
4392;BME280;2210;51.938;8.488;2023-02-28T18:56:05;101973.34;;;1.62;72.78
4392;BME280;2210;51.938;8.488;2023-02-28T19:00:06;101977.50;;;1.56;72.75
4392;BME280;2210;51.938;8.488;2023-02-28T19:04:11;101975.34;;;1.50;73.38
4392;BME280;2210;51.938;8.488;2023-02-28T19:08:12;101983.94;;;1.55;73.76
4392;BME280;2210;51.938;8.488;2023-02-28T19:12:15;101977.63;;;1.55;73.30
4392;BME280;2210;51.938;8.488;2023-02-28T19:16:26;101978.50;;;1.45;74.35
4392;BME280;2210;51.938;8.488;2023-02-28T19:20:38;101993.34;;;1.31;74.11
4392;BME280;2210;51.938;8.488;2023-02-28T19:24:38;101983.03;;;1.15;75.14
4392;BME280;2210;51.938;8.488;2023-02-28T19:28:39;101988.47;;;1.15;74.47
4392;BME280;2210;51.938;8.488;2023-02-28T19:32:58;101992.00;;;1.06;77.64
4392;BME280;2210;51.938;8.488;2023-02-28T19:36:58;101992.41;;;1.01;78.20
4392;BME280;2210;51.938;8.488;2023-02-28T19:41:07;102001.38;;;0.92;78.58
4392;BME280;2210;51.938;8.488;2023-02-28T19:45:09;101993.22;;;0.92;77.94
4392;BME280;2210;51.938;8.488;2023-02-28T19:49:16;101989.84;;;1.10;76.83
4392;BME280;2210;51.938;8.488;2023-02-28T19:53:17;101999.84;;;0.99;76.20
4392;BME280;2210;51.938;8.488;2023-02-28T19:57:17;102015.78;;;0.83;78.87
4392;BME280;2210;51.938;8.488;2023-02-28T20:01:18;102008.47;;;0.74;79.51
4392;BME280;2210;51.938;8.488;2023-02-28T20:05:25;102003.19;;;0.72;80.70
4392;BME280;2210;51.938;8.488;2023-02-28T20:09:34;101998.75;;;0.71;81.40
4392;BME280;2210;51.938;8.488;2023-02-28T20:13:35;102002.84;;;0.65;81.65
4392;BME280;2210;51.938;8.488;2023-02-28T20:17:38;101988.56;;;0.63;80.99
4392;BME280;2210;51.938;8.488;2023-02-28T20:21:56;101986.97;;;0.61;79.64
4392;BME280;2210;51.938;8.488;2023-02-28T20:26:02;101987.19;;;0.48;80.28
4392;BME280;2210;51.938;8.488;2023-02-28T20:30:06;101991.31;;;0.42;82.76
4392;BME280;2210;51.938;8.488;2023-02-28T20:34:07;101999.00;;;0.37;82.28
4392;BME280;2210;51.938;8.488;2023-02-28T20:38:08;102006.06;;;0.28;83.48
4392;BME280;2210;51.938;8.488;2023-02-28T20:42:11;102011.06;;;0.23;82.98
4392;BME280;2210;51.938;8.488;2023-02-28T20:46:12;102004.28;;;0.17;84.70
4392;BME280;2210;51.938;8.488;2023-02-28T20:50:16;102014.78;;;0.11;85.69
4392;BME280;2210;51.938;8.488;2023-02-28T20:54:16;102011.88;;;0.03;86.69
4392;BME280;2210;51.938;8.488;2023-02-28T20:58:16;102025.97;;;-0.04;87.02
4392;BME280;2210;51.938;8.488;2023-02-28T21:02:19;102023.41;;;-0.05;85.68
4392;BME280;2210;51.938;8.488;2023-02-28T21:06:23;102030.16;;;0.01;84.39
4392;BME280;2210;51.938;8.488;2023-02-28T21:10:26;102026.47;;;0.02;85.23
4392;BME280;2210;51.938;8.488;2023-02-28T21:14:27;102018.53;;;0.10;85.89
4392;BME280;2210;51.938;8.488;2023-02-28T21:18:27;102031.75;;;0.03;87.05
4392;BME280;2210;51.938;8.488;2023-02-28T21:22:27;102033.84;;;-0.01;87.83
4392;BME280;2210;51.938;8.488;2023-02-28T21:26:31;102027.94;;;-0.06;88.11
4392;BME280;2210;51.938;8.488;2023-02-28T21:30:31;102024.91;;;-0.12;87.03
4392;BME280;2210;51.938;8.488;2023-02-28T21:34:32;102033.44;;;-0.17;86.83
4392;BME280;2210;51.938;8.488;2023-02-28T21:38:33;102038.09;;;-0.19;87.98
4392;BME280;2210;51.938;8.488;2023-02-28T21:42:33;102035.66;;;-0.22;89.08
4392;BME280;2210;51.938;8.488;2023-02-28T21:46:33;102026.81;;;-0.24;87.95
4392;BME280;2210;51.938;8.488;2023-02-28T21:50:34;102028.41;;;-0.22;88.65
4392;BME280;2210;51.938;8.488;2023-02-28T21:54:34;102020.53;;;-0.25;88.96
4392;BME280;2210;51.938;8.488;2023-02-28T21:58:53;102015.00;;;-0.35;89.57
4392;BME280;2210;51.938;8.488;2023-02-28T22:03:12;102013.59;;;-0.50;90.13
4392;BME280;2210;51.938;8.488;2023-02-28T22:07:12;102025.47;;;-0.62;88.80
4392;BME280;2210;51.938;8.488;2023-02-28T22:11:16;102014.00;;;-0.66;88.94
4392;BME280;2210;51.938;8.488;2023-02-28T22:15:26;102020.53;;;-0.69;89.98
4392;BME280;2210;51.938;8.488;2023-02-28T22:19:32;102022.50;;;-0.71;91.51
4392;BME280;2210;51.938;8.488;2023-02-28T22:23:39;102025.47;;;-0.74;92.88
4392;BME280;2210;51.938;8.488;2023-02-28T22:27:39;102019.56;;;-0.68;92.92
4392;BME280;2210;51.938;8.488;2023-02-28T22:31:46;102027.41;;;-0.64;92.66
4392;BME280;2210;51.938;8.488;2023-02-28T22:35:49;102023.97;;;-0.66;92.52
4392;BME280;2210;51.938;8.488;2023-02-28T22:39:56;102022.13;;;-0.66;91.16
4392;BME280;2210;51.938;8.488;2023-02-28T22:43:59;102025.59;;;-0.75;91.50
4392;BME280;2210;51.938;8.488;2023-02-28T22:48:11;102033.09;;;-0.79;92.51
4392;BME280;2210;51.938;8.488;2023-02-28T22:52:12;102041.47;;;-0.82;92.80
4392;BME280;2210;51.938;8.488;2023-02-28T22:56:20;102041.63;;;-0.95;92.69
4392;BME280;2210;51.938;8.488;2023-02-28T23:00:23;102042.47;;;-0.94;91.59
4392;BME280;2210;51.938;8.488;2023-02-28T23:04:27;102039.41;;;-0.90;91.44
4392;BME280;2210;51.938;8.488;2023-02-28T23:08:33;102036.47;;;-0.87;91.18
4392;BME280;2210;51.938;8.488;2023-02-28T23:12:36;102023.50;;;-0.72;90.61
4392;BME280;2210;51.938;8.488;2023-02-28T23:16:42;102031.63;;;-0.83;92.35
4392;BME280;2210;51.938;8.488;2023-02-28T23:20:49;102032.03;;;-0.88;93.50
4392;BME280;2210;51.938;8.488;2023-02-28T23:24:49;102030.69;;;-0.93;94.69
4392;BME280;2210;51.938;8.488;2023-02-28T23:28:53;102024.78;;;-0.98;94.81
4392;BME280;2210;51.938;8.488;2023-02-28T23:32:53;102025.50;;;-1.08;95.68
4392;BME280;2210;51.938;8.488;2023-02-28T23:36:55;102021.31;;;-1.12;94.19